Time;durP1;ratioP1;P1;durP2;ratioP2;P2;SDS_P1;SDS_P2;PMS_P1;PMS_P2;Temp;Humidity;BMP_temperature;BMP_pressure;BME280_temperature;BME280_humidity;BME280_pressure;Samples;Min_cycle;Max_cycle;Signal;HPM_P1;HPM_P2
2023/04/01 00:01:27;;;;;;;7.83;3.50;;;10.70;99.90;;;;;;5042591;28;20213;-81
2023/04/01 00:03:54;;;;;;;8.27;3.73;;;10.60;99.90;;;;;;5040518;28;20226;-81
2023/04/01 00:06:22;;;;;;;4.80;3.13;;;10.60;99.90;;;;;;5043012;28;20209;-82
2023/04/01 00:08:49;;;;;;;4.50;3.20;;;10.60;99.90;;;;;;5043333;28;20571;-81
2023/04/01 00:11:16;;;;;;;6.47;3.40;;;10.70;99.90;;;;;;5039962;28;20296;-81
2023/04/01 00:13:46;;;;;;;7.47;3.57;;;10.60;99.90;;;;;;5044588;28;20200;-81
2023/04/01 00:16:13;;;;;;;6.20;3.23;;;10.60;99.90;;;;;;5039895;28;20225;-80
2023/04/01 00:18:48;;;;;;;6.00;3.43;;;10.60;99.90;;;;;;5023329;28;20335;-81
2023/04/01 00:21:15;;;;;;;5.57;3.40;;;10.70;99.90;;;;;;5039639;28;20210;-81
2023/04/01 00:23:43;;;;;;;7.87;3.90;;;10.70;99.90;;;;;;5022037;28;20486;-81
2023/04/01 00:26:11;;;;;;;5.70;3.77;;;10.70;99.90;;;;;;5020734;28;20558;-80
2023/04/01 00:28:39;;;;;;;6.90;3.67;;;10.60;99.90;;;;;;5021698;28;20212;-81
2023/04/01 00:31:08;;;;;;;5.50;3.70;;;10.60;99.90;;;;;;5022642;28;20651;-80
2023/04/01 00:33:36;;;;;;;6.47;3.93;;;10.60;99.90;;;;;;5022522;28;20226;-81
2023/04/01 00:36:08;;;;;;;5.70;3.70;;;10.70;99.90;;;;;;5019751;28;20218;-80
2023/04/01 00:38:35;;;;;;;8.77;4.23;;;10.60;99.90;;;;;;5020982;28;20293;-81
2023/04/01 00:41:03;;;;;;;6.53;4.67;;;10.60;99.90;;;;;;5022584;28;20387;-80
2023/04/01 00:43:30;;;;;;;5.97;4.50;;;10.70;99.90;;;;;;5015332;28;20244;-81
2023/04/01 00:45:57;;;;;;;10.23;5.33;;;10.60;99.90;;;;;;5019386;28;20229;-81
2023/04/01 00:48:37;;;;;;;7.30;5.63;;;10.60;99.90;;;;;;5021610;28;20210;-81
2023/04/01 00:51:13;;;;;;;12.37;6.03;;;10.60;99.90;;;;;;5020401;28;20607;-81
2023/04/01 00:53:45;;;;;;;11.77;6.20;;;10.70;99.90;;;;;;5019048;28;20202;-79
2023/04/01 00:56:22;;;;;;;10.70;6.37;;;10.70;99.90;;;;;;5019409;28;20265;-80
2023/04/01 00:58:56;;;;;;;12.97;6.70;;;10.70;99.90;;;;;;5028210;28;20197;-81
2023/04/01 01:01:24;;;;;;;12.17;8.13;;;10.60;99.90;;;;;;5019765;28;20637;-81
2023/04/01 01:03:51;;;;;;;17.33;7.07;;;10.70;99.90;;;;;;5026114;28;20242;-80
2023/04/01 01:06:30;;;;;;;16.77;7.73;;;10.60;99.90;;;;;;5028140;28;20244;-80
2023/04/01 01:09:03;;;;;;;13.07;7.87;;;10.60;99.90;;;;;;5023642;28;20303;-79
2023/04/01 01:11:51;;;;;;;15.03;8.30;;;10.60;99.90;;;;;;5018613;28;20609;-81
2023/04/01 01:14:32;;;;;;;15.57;9.20;;;10.60;99.90;;;;;;5018881;28;20282;-80
2023/04/01 01:17:11;;;;;;;16.97;9.50;;;10.60;99.90;;;;;;5023683;28;20280;-80
2023/04/01 01:19:47;;;;;;;16.93;9.53;;;10.60;99.90;;;;;;5040226;28;20245;-79
2023/04/01 01:22:25;;;;;;;19.67;9.80;;;10.60;99.90;;;;;;5040216;28;20656;-80
2023/04/01 01:25:17;;;;;;;21.97;10.27;;;10.60;99.90;;;;;;5040741;28;20193;-80
2023/04/01 01:27:56;;;;;;;18.83;10.47;;;10.60;99.90;;;;;;5041113;28;20594;-79
2023/04/01 01:30:54;;;;;;;21.73;10.80;;;10.70;99.90;;;;;;5039711;28;20216;-81
2023/04/01 01:33:36;;;;;;;21.63;11.07;;;10.70;99.90;;;;;;5040912;28;20214;-80
2023/04/01 01:36:11;;;;;;;22.73;10.27;;;10.70;99.90;;;;;;5040226;28;20721;-79
2023/04/01 01:38:38;;;;;;;25.80;11.17;;;10.70;99.90;;;;;;5041658;28;20541;-79
2023/04/01 01:41:07;;;;;;;19.40;10.20;;;10.70;99.90;;;;;;5039323;28;20287;-79
2023/04/01 01:43:40;;;;;;;19.63;10.13;;;10.70;99.90;;;;;;5044883;28;20271;-79
2023/04/01 01:46:11;;;;;;;19.00;9.97;;;10.70;99.90;;;;;;5038660;28;20243;-79
2023/04/01 01:48:40;;;;;;;19.40;9.63;;;10.70;99.90;;;;;;5040298;28;20221;-78
2023/04/01 01:51:07;;;;;;;20.10;9.37;;;10.70;99.90;;;;;;5041448;28;20234;-79
2023/04/01 01:53:34;;;;;;;21.80;9.47;;;10.70;99.90;;;;;;5039154;28;20236;-80
2023/04/01 01:56:01;;;;;;;21.30;9.77;;;10.70;99.90;;;;;;5041532;28;20267;-81
2023/04/01 01:58:35;;;;;;;21.97;8.90;;;10.70;99.90;;;;;;5042190;28;20212;-80
2023/04/01 02:01:05;;;;;;;20.93;9.93;;;10.80;99.90;;;;;;5041307;28;20376;-80
2023/04/01 02:03:36;;;;;;;21.73;9.53;;;10.90;99.90;;;;;;5041447;28;20247;-80
2023/04/01 02:06:08;;;;;;;23.63;10.10;;;10.80;99.90;;;;;;5043860;28;20224;-80
2023/04/01 02:08:59;;;;;;;22.63;10.70;;;10.70;99.90;;;;;;5022016;28;20197;-80
2023/04/01 02:11:50;;;;;;;21.93;10.93;;;10.70;99.90;;;;;;5039006;28;20233;-79
2023/04/01 02:14:25;;;;;;;23.23;11.17;;;10.70;99.90;;;;;;5033201;28;20626;-80
2023/04/01 02:17:02;;;;;;;25.27;11.97;;;10.70;99.90;;;;;;5041273;28;20269;-80
2023/04/01 02:19:38;;;;;;;27.70;12.37;;;10.60;99.90;;;;;;5037486;28;20293;-79
2023/04/01 02:22:09;;;;;;;29.07;12.90;;;10.70;99.90;;;;;;5024167;28;20635;-80
2023/04/01 02:24:38;;;;;;;29.80;12.77;;;10.70;99.90;;;;;;5038966;28;20296;-79
2023/04/01 02:27:05;;;;;;;28.30;13.83;;;10.70;99.90;;;;;;5038360;28;20208;-79
2023/04/01 02:29:32;;;;;;;34.97;16.00;;;10.70;99.90;;;;;;5040282;28;20696;-80
2023/04/01 02:32:00;;;;;;;30.47;14.27;;;10.60;99.90;;;;;;5040990;28;20255;-80
2023/04/01 02:34:27;;;;;;;36.03;16.63;;;10.50;99.90;;;;;;5039095;28;20245;-80
2023/04/01 02:36:56;;;;;;;39.20;15.73;;;10.50;99.90;;;;;;5043151;28;20291;-80
2023/04/01 02:39:25;;;;;;;33.83;15.70;;;10.50;99.90;;;;;;5040928;28;20201;-80
2023/04/01 02:41:52;;;;;;;37.57;17.10;;;10.50;99.90;;;;;;5021221;28;20225;-80
2023/04/01 02:44:19;;;;;;;37.47;17.33;;;10.50;99.90;;;;;;5039024;28;20292;-79
2023/04/01 02:46:46;;;;;;;36.33;16.83;;;10.50;99.90;;;;;;5040104;28;20206;-81
2023/04/01 02:49:13;;;;;;;37.30;16.60;;;10.50;99.90;;;;;;5044293;28;20304;-80
2023/04/01 02:51:39;;;;;;;31.03;15.67;;;10.50;99.90;;;;;;5042257;28;20325;-79
2023/04/01 02:54:06;;;;;;;33.23;15.50;;;10.50;99.90;;;;;;5025444;28;20209;-79
2023/04/01 02:56:33;;;;;;;36.47;16.67;;;10.40;99.90;;;;;;5045649;28;20238;-81
2023/04/01 02:59:00;;;;;;;33.13;16.80;;;10.40;99.90;;;;;;5044639;28;20221;-79
2023/04/01 03:01:27;;;;;;;29.53;15.40;;;10.50;99.90;;;;;;5041685;28;20245;-80
2023/04/01 03:03:54;;;;;;;37.67;14.63;;;10.50;99.90;;;;;;5042607;28;20259;-80
2023/04/01 03:06:20;;;;;;;34.07;15.63;;;10.50;99.90;;;;;;5044425;28;20320;-79
2023/04/01 03:08:47;;;;;;;32.03;15.70;;;10.40;99.90;;;;;;5046727;28;20205;-80
2023/04/01 03:11:14;;;;;;;34.10;15.33;;;10.40;99.90;;;;;;5025937;28;20201;-79
2023/04/01 03:13:41;;;;;;;33.03;15.77;;;10.50;99.90;;;;;;5043710;28;20206;-80
2023/04/01 03:16:08;;;;;;;33.20;15.97;;;10.40;99.90;;;;;;5025817;28;20232;-79
2023/04/01 03:18:35;;;;;;;31.00;14.83;;;10.40;99.90;;;;;;5031664;28;20229;-79
2023/04/01 03:21:22;;;;;;;30.67;15.57;;;10.40;99.90;;;;;;5043713;28;20209;-80
2023/04/01 03:23:49;;;;;;;32.90;14.73;;;10.40;99.90;;;;;;5040708;28;20542;-80
2023/04/01 03:26:16;;;;;;;31.47;15.97;;;10.40;99.90;;;;;;5043104;28;20224;-81
2023/04/01 03:28:43;;;;;;;34.47;15.07;;;10.40;99.90;;;;;;5025070;28;20210;-80
2023/04/01 03:31:11;;;;;;;31.80;15.20;;;10.40;99.90;;;;;;5027296;28;20228;-80
2023/04/01 03:33:37;;;;;;;28.73;14.17;;;10.40;99.90;;;;;;5040727;28;20317;-81
2023/04/01 03:36:06;;;;;;;32.87;14.63;;;10.40;99.90;;;;;;5043943;28;20251;-80
2023/04/01 03:38:34;;;;;;;29.73;14.13;;;10.40;99.90;;;;;;5042638;28;20292;-80
2023/04/01 03:41:01;;;;;;;28.43;14.70;;;10.40;99.90;;;;;;5042891;28;20210;-81
2023/04/01 03:43:28;;;;;;;32.87;15.57;;;10.40;99.90;;;;;;5043404;28;20288;-80
2023/04/01 03:45:57;;;;;;;32.00;14.77;;;10.40;99.90;;;;;;5041250;28;20289;-81
2023/04/01 03:48:25;;;;;;;32.70;14.50;;;10.40;99.90;;;;;;5041546;28;20252;-80
2023/04/01 03:50:52;;;;;;;28.47;13.63;;;10.50;99.90;;;;;;5046209;28;20205;-80
2023/04/01 03:53:19;;;;;;;31.23;14.00;;;10.50;99.90;;;;;;5022774;28;20206;-80
2023/04/01 03:55:46;;;;;;;30.43;15.07;;;10.50;99.90;;;;;;5041904;28;20331;-81
2023/04/01 03:58:13;;;;;;;31.20;13.43;;;10.50;99.90;;;;;;5042010;28;20205;-80
2023/04/01 04:00:40;;;;;;;30.57;13.03;;;10.50;99.90;;;;;;5041969;28;20288;-81
2023/04/01 04:03:07;;;;;;;26.00;12.10;;;10.50;99.90;;;;;;5039966;28;20225;-81
2023/04/01 04:05:34;;;;;;;21.10;11.13;;;10.50;99.90;;;;;;5046847;28;20205;-80
2023/04/01 04:08:02;;;;;;;26.93;12.93;;;10.50;99.90;;;;;;5026169;28;20654;-81
2023/04/01 04:10:29;;;;;;;23.87;10.77;;;10.50;99.90;;;;;;5041719;28;20202;-80
2023/04/01 04:12:56;;;;;;;21.63;10.20;;;10.50;99.90;;;;;;5046230;28;20205;-81
2023/04/01 04:15:23;;;;;;;18.83;9.97;;;10.50;99.90;;;;;;5040785;28;20296;-81
2023/04/01 04:17:51;;;;;;;23.47;11.20;;;10.50;99.90;;;;;;5018620;28;20329;-80
2023/04/01 04:20:18;;;;;;;19.87;11.30;;;10.50;99.90;;;;;;5021939;28;20214;-82
2023/04/01 04:22:45;;;;;;;27.63;12.27;;;10.50;99.90;;;;;;5022046;28;20249;-81
2023/04/01 04:25:11;;;;;;;25.97;11.87;;;10.50;99.90;;;;;;5022631;28;20293;-80
2023/04/01 04:27:38;;;;;;;24.60;10.70;;;10.50;99.90;;;;;;5022184;28;20199;-81
2023/04/01 04:30:07;;;;;;;23.50;10.33;;;10.50;99.90;;;;;;5026070;28;20722;-81
2023/04/01 04:32:34;;;;;;;25.90;12.17;;;10.50;99.90;;;;;;5022436;28;20309;-80
2023/04/01 04:35:02;;;;;;;23.13;11.33;;;10.60;99.90;;;;;;5021473;28;20776;-80
2023/04/01 04:37:28;;;;;;;22.00;10.97;;;10.60;99.90;;;;;;5021966;28;20702;-81
2023/04/01 04:39:55;;;;;;;22.73;11.30;;;10.60;99.90;;;;;;5019686;28;20226;-80
2023/04/01 04:42:22;;;;;;;22.43;11.13;;;10.60;99.90;;;;;;5019462;28;20207;-81
2023/04/01 04:44:49;;;;;;;24.70;10.50;;;10.60;99.90;;;;;;5024073;28;20209;-81
2023/04/01 04:47:15;;;;;;;22.60;11.03;;;10.60;99.90;;;;;;5020981;28;20293;-81
2023/04/01 04:49:42;;;;;;;23.10;11.13;;;10.70;99.90;;;;;;5038029;28;20292;-80
2023/04/01 04:52:09;;;;;;;23.23;11.00;;;10.60;99.90;;;;;;5020576;28;20233;-82
2023/04/01 04:54:36;;;;;;;23.83;11.27;;;10.70;99.90;;;;;;5022255;28;20241;-81
2023/04/01 04:57:03;;;;;;;19.00;10.17;;;10.70;99.90;;;;;;5025261;28;20760;-79
2023/04/01 04:59:30;;;;;;;20.10;11.13;;;10.70;99.90;;;;;;5021338;28;20581;-82
2023/04/01 05:01:59;;;;;;;23.30;10.73;;;10.60;99.90;;;;;;5025652;28;20241;-81
2023/04/01 05:04:26;;;;;;;25.30;10.90;;;10.60;99.90;;;;;;5020245;28;20690;-81
2023/04/01 05:06:53;;;;;;;23.63;10.43;;;10.70;99.90;;;;;;5029430;28;20682;-81
2023/04/01 05:09:20;;;;;;;25.73;10.73;;;10.70;99.90;;;;;;5019503;28;20245;-82
2023/04/01 05:11:46;;;;;;;20.87;11.00;;;10.60;99.90;;;;;;5021523;28;20206;-81
2023/04/01 05:14:17;;;;;;;17.67;9.87;;;10.60;99.90;;;;;;5027806;28;20702;-82
2023/04/01 05:16:43;;;;;;;20.80;10.33;;;10.60;99.90;;;;;;5021051;28;20615;-82
2023/04/01 05:19:10;;;;;;;21.30;10.53;;;10.60;99.90;;;;;;5041894;28;20586;-80
2023/04/01 05:21:37;;;;;;;26.67;14.07;;;10.60;99.90;;;;;;5023616;28;20194;-81
2023/04/01 05:24:09;;;;;;;25.97;13.67;;;10.70;99.90;;;;;;5044493;28;20244;-80
2023/04/01 05:26:36;;;;;;;25.27;12.27;;;10.70;99.90;;;;;;5020772;28;20245;-80
2023/04/01 05:29:05;;;;;;;23.13;11.80;;;10.70;99.90;;;;;;5045458;28;20715;-80
2023/04/01 05:31:34;;;;;;;22.87;11.17;;;10.70;99.90;;;;;;5040964;28;20212;-78
2023/04/01 05:34:01;;;;;;;20.67;10.97;;;10.70;99.90;;;;;;5043401;28;20312;-82
2023/04/01 05:36:28;;;;;;;23.77;11.27;;;10.70;99.90;;;;;;5027777;28;20736;-82
2023/04/01 05:38:56;;;;;;;22.67;10.83;;;10.70;99.90;;;;;;5033515;28;20658;-81
2023/04/01 05:41:23;;;;;;;25.67;11.50;;;10.70;99.90;;;;;;5043048;28;20201;-82
2023/04/01 05:43:49;;;;;;;24.60;10.87;;;10.70;99.90;;;;;;5043836;28;20300;-81
2023/04/01 05:46:16;;;;;;;29.97;12.23;;;10.70;99.90;;;;;;5043700;28;20568;-81
2023/04/01 05:48:43;;;;;;;27.57;12.53;;;10.80;99.90;;;;;;5023021;28;20225;-81
2023/04/01 05:51:15;;;;;;;25.47;11.87;;;10.70;99.90;;;;;;5047029;28;20655;-78
2023/04/01 05:53:44;;;;;;;28.07;12.27;;;10.50;99.90;;;;;;5029363;28;20215;-81
2023/04/01 05:56:11;;;;;;;28.83;12.73;;;11.00;99.90;;;;;;5044692;28;20201;-81
2023/04/01 05:58:38;;;;;;;29.47;12.87;;;11.20;99.90;;;;;;5043457;28;20716;-81
2023/04/01 06:01:08;;;;;;;30.10;13.67;;;10.80;99.90;;;;;;5025293;28;20264;-82
2023/04/01 06:03:41;;;;;;;32.40;13.77;;;11.10;99.90;;;;;;5025861;28;20671;-81
2023/04/01 06:06:19;;;;;;;29.63;13.90;;;11.20;99.90;;;;;;5041277;28;20205;-82
2023/04/01 06:08:46;;;;;;;30.53;13.83;;;10.80;99.90;;;;;;5040016;28;20589;-82
2023/04/01 06:11:38;;;;;;;32.93;13.97;;;11.10;99.90;;;;;;5041733;28;20212;-82
2023/04/01 06:14:29;;;;;;;37.73;14.37;;;10.80;99.90;;;;;;5044407;28;20259;-83
2023/04/01 06:17:18;;;;;;;34.80;14.63;;;10.80;99.90;;;;;;5040820;28;20648;-82
2023/04/01 06:19:50;;;;;;;36.57;15.07;;;10.80;99.90;;;;;;5022840;28;20209;-82
2023/04/01 06:22:39;;;;;;;38.07;14.73;;;10.80;99.90;;;;;;5049063;28;20205;-82
2023/04/01 06:25:23;;;;;;;35.70;14.37;;;10.80;99.90;;;;;;5046106;28;20199;-83
2023/04/01 06:28:09;;;;;;;34.30;13.80;;;10.80;99.90;;;;;;5047850;28;20681;-82
2023/04/01 06:30:43;;;;;;;32.47;14.20;;;10.70;99.90;;;;;;5044458;28;20205;-81
2023/04/01 06:33:33;;;;;;;40.77;14.83;;;10.80;99.90;;;;;;5050759;28;20255;-83
2023/04/01 06:36:14;;;;;;;41.00;15.50;;;10.80;99.90;;;;;;5026372;28;20289;-82
2023/04/01 06:38:46;;;;;;;39.00;16.23;;;10.80;99.90;;;;;;5026020;28;20258;-84
2023/04/01 06:41:31;;;;;;;33.93;14.07;;;10.80;99.90;;;;;;5027705;28;20220;-81
2023/04/01 06:43:58;;;;;;;39.67;15.87;;;10.80;99.90;;;;;;5045768;28;20557;-82
2023/04/01 06:46:48;;;;;;;36.67;14.63;;;10.70;99.90;;;;;;5049538;28;20206;-81
2023/04/01 06:49:52;;;;;;;38.47;15.00;;;10.90;99.90;;;;;;5046734;28;20249;-82
2023/04/01 06:52:44;;;;;;;34.47;14.33;;;10.90;99.90;;;;;;5044601;28;20558;-83
2023/04/01 06:55:45;;;;;;;48.93;14.57;;;10.90;99.90;;;;;;5045169;28;20662;-81
2023/04/01 06:58:43;;;;;;;44.27;13.93;;;10.80;99.90;;;;;;5028726;28;20232;-81
2023/04/01 07:01:16;;;;;;;33.47;13.27;;;10.90;99.90;;;;;;5013084;28;20209;-84
2023/04/01 07:03:50;;;;;;;33.97;13.23;;;10.80;99.90;;;;;;5045893;28;20742;-83
2023/04/01 07:06:37;;;;;;;32.23;12.37;;;10.90;99.90;;;;;;5049954;28;20641;-82
2023/04/01 07:09:22;;;;;;;34.53;12.77;;;10.90;99.90;;;;;;5044223;28;20657;-81
2023/04/01 07:11:51;;;;;;;29.97;12.67;;;10.90;99.90;;;;;;5030801;28;20590;-82
2023/04/01 07:14:32;;;;;;;27.50;11.53;;;10.90;99.90;;;;;;5039064;28;20214;-81
2023/04/01 07:17:15;;;;;;;29.77;10.70;;;10.90;99.90;;;;;;5045494;28;20687;-82
2023/04/01 07:20:05;;;;;;;28.17;10.90;;;10.90;99.90;;;;;;5028335;28;20712;-82
2023/04/01 07:22:43;;;;;;;26.27;10.17;;;10.90;99.90;;;;;;5025436;28;20244;-83
2023/04/01 07:25:31;;;;;;;23.30;10.17;;;10.90;99.90;;;;;;5045753;28;20335;-82
2023/04/01 07:28:05;;;;;;;29.37;11.30;;;10.90;99.90;;;;;;5048765;28;20216;-80
2023/04/01 07:30:48;;;;;;;26.70;9.57;;;11.00;99.90;;;;;;5029483;28;20203;-81
2023/04/01 07:33:49;;;;;;;23.57;9.27;;;11.00;99.90;;;;;;5045329;28;20245;-82
2023/04/01 07:36:32;;;;;;;27.17;10.30;;;11.10;99.90;;;;;;5040041;28;20217;-81
2023/04/01 07:39:37;;;;;;;23.87;9.77;;;11.10;99.90;;;;;;5042100;28;20209;-80
2023/04/01 07:42:27;;;;;;;25.83;8.93;;;11.20;99.90;;;;;;5038157;28;20205;-80
2023/04/01 07:45:00;;;;;;;23.13;8.70;;;11.20;99.90;;;;;;5004955;28;20740;-80
2023/04/01 07:47:48;;;;;;;27.17;8.67;;;11.30;99.90;;;;;;5043688;28;20224;-81
2023/04/01 07:50:24;;;;;;;21.53;9.60;;;11.40;99.90;;;;;;5036845;28;20593;-80
2023/04/01 07:53:29;;;;;;;20.33;8.23;;;11.40;99.90;;;;;;5044664;28;20200;-80
2023/04/01 07:56:05;;;;;;;17.70;7.33;;;11.50;99.90;;;;;;5042422;28;20603;-80
2023/04/01 07:58:43;;;;;;;17.33;7.37;;;11.60;99.90;;;;;;5031008;28;20653;-79
2023/04/01 08:01:19;;;;;;;17.10;6.73;;;11.80;99.90;;;;;;5028420;28;20205;-80
2023/04/01 08:04:11;;;;;;;16.07;6.80;;;11.80;99.90;;;;;;5025778;28;20229;-81
2023/04/01 08:06:59;;;;;;;11.40;5.53;;;11.90;99.90;;;;;;5048106;28;20197;-79
2023/04/01 08:09:59;;;;;;;12.90;5.77;;;11.90;99.90;;;;;;5026765;28;20289;-82
2023/04/01 08:12:35;;;;;;;11.23;5.43;;;11.90;99.90;;;;;;5039628;28;20320;-81
2023/04/01 08:15:23;;;;;;;11.33;5.80;;;12.00;99.90;;;;;;5031445;28;20593;-81
2023/04/01 08:17:50;;;;;;;13.27;5.70;;;12.00;99.90;;;;;;5018588;28;20504;-81
2023/04/01 08:20:28;;;;;;;11.67;6.07;;;12.10;99.90;;;;;;5027443;28;20284;-81
2023/04/01 08:23:03;;;;;;;11.40;5.97;;;12.20;99.90;;;;;;5019264;28;20206;-80
2023/04/01 08:25:32;;;;;;;11.97;6.27;;;12.30;99.90;;;;;;5025011;28;20206;-81
2023/04/01 08:28:22;;;;;;;12.37;6.23;;;12.40;99.90;;;;;;5022563;28;20662;-80
2023/04/01 08:31:10;;;;;;;11.47;6.13;;;12.40;99.90;;;;;;5024461;28;20202;-82
2023/04/01 08:33:40;;;;;;;9.40;6.23;;;12.40;99.90;;;;;;5022252;28;20230;-81
2023/04/01 08:36:19;;;;;;;8.37;5.57;;;12.50;99.90;;;;;;5022119;28;20245;-81
2023/04/01 08:39:10;;;;;;;10.23;5.57;;;12.50;99.90;;;;;;5025601;28;20260;-80
2023/04/01 08:42:09;;;;;;;10.80;5.60;;;12.60;99.90;;;;;;5027612;28;20248;-82
2023/04/01 08:45:00;;;;;;;9.63;5.73;;;12.60;99.90;;;;;;5020479;28;20249;-81
2023/04/01 08:47:30;;;;;;;8.87;5.40;;;12.70;99.90;;;;;;5019428;28;20277;-81
2023/04/01 08:49:57;;;;;;;7.27;4.50;;;12.90;99.90;;;;;;5023696;28;20205;-79
2023/04/01 08:52:37;;;;;;;8.97;5.23;;;13.00;99.90;;;;;;5024698;28;20203;-81
2023/04/01 08:55:12;;;;;;;8.27;5.03;;;13.10;99.90;;;;;;5025579;28;20201;-80
2023/04/01 08:57:53;;;;;;;8.23;5.47;;;13.10;99.90;;;;;;5025737;28;20287;-79
2023/04/01 09:00:32;;;;;;;9.80;5.03;;;13.30;99.90;;;;;;5024923;28;20194;-80
2023/04/01 09:03:11;;;;;;;6.57;4.33;;;13.70;99.90;;;;;;5034338;28;20217;-79
2023/04/01 09:06:04;;;;;;;8.70;4.53;;;14.00;99.90;;;;;;5047069;28;20218;-80
2023/04/01 09:08:57;;;;;;;8.40;4.90;;;14.40;99.90;;;;;;5009529;28;20701;-78
2023/04/01 09:11:27;;;;;;;7.17;4.57;;;14.60;99.90;;;;;;5009809;28;20220;-79
2023/04/01 09:14:15;;;;;;;7.10;4.03;;;14.60;99.90;;;;;;5021603;28;20209;-79
2023/04/01 09:17:10;;;;;;;6.35;3.85;;;14.70;99.90;;;;;;5022215;28;20205;-77
2023/04/01 09:20:02;;;;;;;8.07;4.80;;;14.70;99.90;;;;;;5028583;28;20259;-79
2023/04/01 09:23:06;;;;;;;6.43;3.28;;;14.80;99.90;;;;;;5040314;28;20201;-79
2023/04/01 09:25:52;;;;;;;6.82;4.53;;;15.00;99.90;;;;;;5044055;28;20193;-79
2023/04/01 09:28:32;;;;;;;5.38;3.83;;;15.20;99.90;;;;;;5044458;28;20748;-79
2023/04/01 09:31:24;;;;;;;4.22;3.10;;;15.40;99.90;;;;;;5043377;28;20200;-78
2023/04/01 09:34:00;;;;;;;5.55;3.83;;;15.70;99.90;;;;;;5039244;28;20224;-79
2023/04/01 09:36:50;;;;;;;5.35;3.65;;;15.80;99.90;;;;;;5041772;28;20695;-78
2023/04/01 09:39:32;;;;;;;4.72;3.60;;;15.80;99.90;;;;;;5041263;28;20208;-78
2023/04/01 09:42:22;;;;;;;3.67;2.20;;;15.90;99.90;;;;;;5042562;28;20225;-79
2023/04/01 09:44:58;;;;;;;2.08;1.40;;;15.90;99.90;;;;;;5030855;28;20265;-80
2023/04/01 09:47:54;;;;;;;1.85;1.30;;;15.90;99.90;;;;;;5041583;28;20311;-78
2023/04/01 09:50:47;;;;;;;3.63;1.38;;;15.70;99.90;;;;;;5001612;28;20243;-77
2023/04/01 09:54:07;;;;;;;2.80;1.40;;;15.40;99.90;;;;;;5042765;28;20201;-78
2023/04/01 09:56:43;;;;;;;1.60;1.20;;;15.10;99.90;;;;;;5040638;28;20288;-78
2023/04/01 09:59:47;;;;;;;1.20;1.10;;;14.70;99.90;;;;;;5043032;28;20260;-78
2023/04/01 10:02:47;;;;;;;1.30;1.00;;;14.50;99.90;;;;;;5045170;28;20214;-80
2023/04/01 10:05:23;;;;;;;1.23;1.00;;;14.20;99.90;;;;;;5043811;28;20283;-80
2023/04/01 10:07:56;;;;;;;1.10;1.00;;;13.90;99.90;;;;;;5028053;28;20292;-79
2023/04/01 10:10:26;;;;;;;1.50;1.20;;;13.80;99.90;;;;;;5046284;28;20373;-79
2023/04/01 10:13:17;;;;;;;1.63;1.10;;;13.70;99.90;;;;;;5046490;28;20262;-79
2023/04/01 10:16:01;;;;;;;1.50;1.30;;;13.50;99.90;;;;;;5045002;28;20269;-80
2023/04/01 10:18:46;;;;;;;1.40;1.30;;;13.40;99.90;;;;;;5045184;28;20241;-79
2023/04/01 10:21:37;;;;;;;4.20;2.13;;;13.30;99.90;;;;;;5041416;28;20355;-79
2023/04/01 10:24:29;;;;;;;5.53;2.20;;;13.30;99.90;;;;;;5046057;28;20649;-76
2023/04/01 10:27:14;;;;;;;5.20;2.20;;;13.10;99.90;;;;;;5044142;28;20244;-78
2023/04/01 10:29:57;;;;;;;4.17;2.50;;;13.00;99.90;;;;;;5045741;28;20279;-77
2023/04/01 10:32:42;;;;;;;5.47;2.43;;;12.90;99.90;;;;;;5043453;28;20689;-75
2023/04/01 10:35:16;;;;;;;7.10;3.03;;;12.70;99.90;;;;;;5050241;28;20197;-76
2023/04/01 10:38:02;;;;;;;7.10;2.90;;;12.60;99.90;;;;;;5045011;28;20253;-75
2023/04/01 10:40:50;;;;;;;5.90;3.20;;;12.60;99.90;;;;;;5026809;28;20196;-77
2023/04/01 10:43:45;;;;;;;7.23;3.27;;;12.50;99.90;;;;;;5045783;28;20291;-78
2023/04/01 10:46:46;;;;;;;8.00;3.30;;;12.50;99.90;;;;;;5046483;28;20620;-77
2023/04/01 10:49:25;;;;;;;9.40;3.80;;;12.40;99.90;;;;;;5047767;28;20312;-77
2023/04/01 10:52:38;;;;;;;6.90;3.57;;;12.40;99.90;;;;;;5048805;28;20201;-79
2023/04/01 10:55:58;;;;;;;8.27;3.57;;;12.50;99.90;;;;;;5029756;28;20204;-79
2023/04/01 10:58:51;;;;;;;7.00;3.67;;;12.40;99.90;;;;;;4963907;28;20239;-79
2023/04/01 11:01:42;;;;;;;9.20;4.20;;;12.40;99.90;;;;;;4965138;28;20212;-78
2023/04/01 11:04:45;;;;;;;7.93;3.83;;;12.60;99.90;;;;;;5015445;28;20221;-78
2023/04/01 11:07:30;;;;;;;7.47;4.07;;;12.60;99.90;;;;;;5043407;28;20205;-79
2023/04/01 11:10:41;;;;;;;13.33;5.07;;;12.60;99.90;;;;;;5044265;28;20209;-79
2023/04/01 11:13:32;;;;;;;9.40;4.93;;;12.70;99.90;;;;;;4991494;28;20206;-77
2023/04/01 11:16:29;;;;;;;12.50;5.20;;;12.70;99.90;;;;;;5047789;28;20574;-79
2023/04/01 11:18:56;;;;;;;14.03;5.60;;;12.80;99.90;;;;;;5047763;28;20591;-79
2023/04/01 11:21:58;;;;;;;13.40;5.20;;;12.80;99.90;;;;;;5045011;28;20256;-78
2023/04/01 11:24:32;;;;;;;8.00;4.00;;;12.90;99.90;;;;;;5031477;28;20201;-78
2023/04/01 11:27:20;;;;;;;7.53;4.10;;;12.90;99.90;;;;;;5032549;28;20276;-80
2023/04/01 11:29:47;;;;;;;7.97;4.23;;;13.00;99.90;;;;;;5050373;28;20662;-81
2023/04/01 11:32:51;;;;;;;10.70;5.97;;;13.00;99.90;;;;;;5043713;28;20217;-79
2023/04/01 11:35:55;;;;;;;10.47;5.40;;;13.20;99.90;;;;;;5043185;28;20202;-79
2023/04/01 11:38:47;;;;;;;11.73;6.67;;;13.30;99.90;;;;;;5038658;28;20301;-77
2023/04/01 11:41:27;;;;;;;12.17;6.37;;;13.40;99.90;;;;;;5046044;28;20203;-79
2023/04/01 11:44:39;;;;;;;11.33;6.30;;;13.60;99.90;;;;;;5040956;28;20210;-79
2023/04/01 11:47:43;;;;;;;5.67;3.67;;;13.70;99.90;;;;;;5037732;28;20328;-80
2023/04/01 11:50:16;;;;;;;5.97;4.00;;;13.80;99.90;;;;;;5029442;28;20201;-79
2023/04/01 11:53:12;;;;;;;6.23;3.37;;;13.70;99.90;;;;;;5045975;28;20236;-80
2023/04/01 11:56:13;;;;;;;5.13;2.90;;;13.50;99.90;;;;;;5028762;28;20194;-79
2023/04/01 11:59:13;;;;;;;5.03;2.90;;;13.40;99.90;;;;;;5016971;28;20225;-77
2023/04/01 12:01:54;;;;;;;4.53;3.00;;;13.30;99.90;;;;;;5042179;28;20298;-77
2023/04/01 12:04:43;;;;;;;4.73;3.40;;;13.10;99.90;;;;;;5044752;28;20266;-78
2023/04/01 12:07:34;;;;;;;4.33;3.00;;;12.90;99.90;;;;;;5044923;28;20197;-79
2023/04/01 12:10:40;;;;;;;6.33;3.27;;;12.70;99.90;;;;;;5043038;28;20288;-80
2023/04/01 12:13:27;;;;;;;5.97;3.63;;;12.50;99.90;;;;;;5042286;28;20593;-78
2023/04/01 12:16:15;;;;;;;6.27;3.73;;;12.30;99.90;;;;;;5002273;28;20198;-78
2023/04/01 12:18:59;;;;;;;7.00;4.20;;;12.40;99.90;;;;;;5025970;28;20236;-78
2023/04/01 12:21:36;;;;;;;6.33;4.43;;;12.40;99.90;;;;;;5045136;28;20681;-78
2023/04/01 12:24:25;;;;;;;9.37;5.07;;;12.50;99.90;;;;;;5022044;28;20233;-79
2023/04/01 12:26:54;;;;;;;11.40;5.90;;;12.50;99.90;;;;;;5042150;28;20197;-79
2023/04/01 12:29:58;;;;;;;11.30;5.67;;;12.60;99.90;;;;;;5042036;28;20201;-79
2023/04/01 12:32:51;;;;;;;9.23;5.37;;;12.70;99.90;;;;;;5042259;28;20252;-78
2023/04/01 12:35:25;;;;;;;12.57;5.77;;;12.80;99.90;;;;;;5042383;28;20204;-78
2023/04/01 12:38:25;;;;;;;13.40;6.37;;;12.90;99.90;;;;;;5041784;28;20613;-79
2023/04/01 12:41:12;;;;;;;9.17;5.43;;;12.90;99.90;;;;;;5042643;28;20247;-78
2023/04/01 12:44:18;;;;;;;11.00;5.50;;;13.00;99.90;;;;;;5027652;28;20287;-79
2023/04/01 12:47:03;;;;;;;8.20;5.00;;;13.10;99.90;;;;;;5042573;28;20231;-80
2023/04/01 12:50:02;;;;;;;6.60;4.50;;;13.10;99.90;;;;;;5040217;28;20205;-80
2023/04/01 12:52:51;;;;;;;6.33;4.80;;;13.10;99.90;;;;;;5041164;28;20212;-80
2023/04/01 12:55:23;;;;;;;7.23;4.80;;;13.00;99.90;;;;;;5041372;28;20632;-81
2023/04/01 12:58:16;;;;;;;7.17;5.40;;;12.90;99.90;;;;;;5032926;28;20281;-80
2023/04/01 13:01:01;;;;;;;7.80;4.53;;;12.90;99.90;;;;;;5007323;28;20225;-79
2023/04/01 13:04:05;;;;;;;7.27;5.00;;;13.00;99.90;;;;;;5022247;28;20226;-79
2023/04/01 13:06:53;;;;;;;6.33;4.07;;;13.00;99.90;;;;;;5043938;28;20593;-81
2023/04/01 13:09:31;;;;;;;4.83;3.77;;;13.10;99.90;;;;;;5041056;28;20415;-82
2023/04/01 13:12:23;;;;;;;4.70;3.50;;;13.00;99.90;;;;;;5048881;28;20209;-80
2023/04/01 13:15:24;;;;;;;4.63;3.47;;;13.10;99.90;;;;;;5038027;28;20216;-81
2023/04/01 13:18:09;;;;;;;7.03;4.30;;;13.00;99.90;;;;;;5041106;28;20256;-80
2023/04/01 13:21:05;;;;;;;6.90;4.40;;;13.00;99.90;;;;;;5044396;28;20209;-81
2023/04/01 13:23:41;;;;;;;5.80;4.53;;;13.10;99.90;;;;;;5038694;28;20232;-80
2023/04/01 13:26:31;;;;;;;6.87;5.27;;;13.10;99.90;;;;;;5024266;28;20205;-82
2023/04/01 13:29:19;;;;;;;8.73;5.20;;;13.00;99.90;;;;;;5040693;28;20719;-81
2023/04/01 13:32:09;;;;;;;7.13;5.33;;;13.10;99.90;;;;;;5039355;28;20201;-81
2023/04/01 13:34:52;;;;;;;7.27;5.70;;;13.10;99.90;;;;;;5040552;28;20633;-81